x

Buoy F01 - West Penobscot Bay (44033) Wave Buoy

8:04am - Sat 18th Apr 2015 All times are EDT. -4 hours from GMT.

  • Sig Wave height 2.0ft
  • Peak Period 6s
  • Wind
    13mph, 16mph gusts
  • Sea Temp 38°f
  • Air Temp 41°f
  • Sea Pressure 1013.1mb
  • Buoy F01 - West Penobscot Bay
  • Buoy F01 - West Penobscot Bay

More Historic Weather Station data

Upgrade to MSW Pro to gain access to the past 30 days of data for over 8000 Wavebouys and Weather Stations around the globe.

Join Pro

Comparision Forecast

View Surf forecast
   
Sat 04/18 8:04am 2ft 6s 13 16 mph 1013.1mb 38f 41f
7:04am 1.6ft 3s 13 16 mph 1013mb 38f 42f
6:04am 1.6ft 5s 16 18 mph 1012.1mb 38f 44f
5:04am 2ft 5s 9 11 mph 1011.7mb 38f 43f
4:04am 1.6ft 5s 7
mph
1011mb 38f 44f
3:04am 1.6ft 6s 11 13 mph 1010mb 38f 45f
2:04am 2ft 6s 11 13 mph 1009.6mb 38f 46f
1:04am 2ft 6s 9
mph
1009.1mb 38f 44f
12:04am 1.6ft 5s 7 9 mph 1008.6mb 38f 43f
Fri 04/17 11:04pm 1.6ft 6s 9
mph
1008.2mb 38f 47f
10:04pm 2ft 6s 7
mph
1008.3mb 38f 47f
9:04pm 2ft 6s 7
mph
1008.3mb 38f 45f
8:04pm 2.5ft 5s 9 11 mph 1007.7mb 38f 45f
7:04pm 2.5ft 6s 11 13 mph 1007.2mb 38f 42f
6:04pm 2ft 6s 16 18 mph 1007mb 39f 44f
5:04pm 2.5ft 5s 13 16 mph 1007.2mb 38f 44f
4:04pm 2.5ft 6s 16 18 mph 1007.4mb 39f 44f
3:04pm 2.5ft 6s 11 13 mph 1008.2mb 38f 41f
2:04pm 2.5ft 5s 16 18 mph 1009.3mb 38f 41f
1:04pm 2.5ft 6s 18 20 mph 1009.7mb 38f 42f
12:04pm 2.5ft 6s 13
mph
1011.3mb 38f 42f
11:04am 2.5ft 6s 18 22 mph 1012.2mb 38f 43f
10:04am 2.5ft 6s 16 20 mph 1012.7mb 38f 42f
9:04am 2.5ft 6s 22 25 mph 1013mb 38f 42f
8:04am 3ft 6s 18 22 mph 1014.1mb 38f 43f
7:04am 2.5ft 5s 18 22 mph 1014.5mb 38f 43f
6:04am 2.5ft 8s 18 22 mph 1015.1mb 38f 42f
5:04am 2.5ft 5s 18 22 mph 1015.6mb 38f 42f
4:04am 2.5ft 6s 22 27 mph 1016.2mb 39f 43f
3:04am 3ft 5s 20 22 mph 1017.2mb 39f 42f
2:04am 2.5ft 5s 20 22 mph 1018.1mb 40f 42f
1:04am 3ft 5s 18 22 mph 1019.6mb 39f 42f
12:04am 2.5ft 5s 16 20 mph 1020.8mb 39f 42f
Thu 04/16 11:04pm 2ft 5s 11 16 mph 1021.8mb 39f 42f
10:04pm 2ft 5s 13
mph
1022.7mb 39f 41f
9:04pm 2ft 4s 11 13 mph 1023.5mb 39f 41f
8:04pm 2ft 4s 13 18 mph 1024.2mb 40f 41f
7:04pm 2ft 4s 11 13 mph 1024.5mb 40f 40f
6:04pm 1.6ft 3s 16 18 mph 1025.4mb 40f 41f
5:04pm 2.5ft 8s 16 20 mph 1026.1mb 40f 41f
4:04pm 1.3ft 3s 16 20 mph 1026.8mb 40f 41f
3:04pm 1.6ft 8s 16 18 mph 1027.7mb 40f 41f
2:04pm 1.6ft 11s 13 16 mph 1028.2mb 40f 41f
1:04pm 1.3ft 11s 9 11 mph 1028.8mb 40f 41f
12:04pm 1.3ft 6s 7 9 mph 1029.5mb 40f 40f
11:04am 1.3ft 8s 2 4 mph 1030.1mb 39f 42f
10:04am 1.3ft 8s  -  mph 1030.6mb 39f 40f
9:04am 1.3ft 8s  -  mph 1030.4mb 38f 42f
8:04am 1.6ft 8s 7
mph
1030.2mb 38f 40f
7:04am 1.6ft 8s 9
mph
1030mb 38f 40f
6:04am 1.3ft 5s 9
mph
1029.1mb 38f 40f
5:04am 1.6ft 8s  -  mph - 39f -
4:04am 1.3ft 8s  -  mph - 39f -
3:04am 1.3ft 8s 11 13 mph 1027.4mb 39f 42f
2:04am 1.6ft 8s 13 16 mph 1027mb 39f 43f
1:04am 1.3ft 8s 9
mph
1026.9mb 40f 43f
12:04am 1.3ft 6s 11
mph
1026.2mb 40f 44f
Wed 04/15 11:04pm 1.6ft 8s 13 16 mph 1025.6mb 40f 45f
10:04pm 2ft 8s  -  mph - 37f -
9:04pm 2ft 8s 11
mph
1023.4mb 37f 44f
8:04pm 2ft 8s 9
mph
1022.2mb 37f 43f
7:04pm 1.6ft 8s 9 11 mph 1020.6mb 37f 44f
6:04pm 1.6ft 8s 11 13 mph 1019.9mb 38f 46f
5:04pm 1.6ft 3s 11 13 mph 1019.1mb 38f 47f
4:04pm 2ft 3s 13 16 mph 1018.7mb 38f 46f
3:04pm 2ft 3s 13 20 mph 1018.2mb 38f 47f
2:04pm 2ft 3s 16 18 mph 1017.8mb 39f 47f
1:04pm 2.5ft 3s 13 18 mph 1017.3mb 38f 49f
11:04am 1.6ft 6s 13 18 mph 1017mb 37f 50f
10:04am 1.6ft 6s  -  2 mph 1017.2mb 37f 46f
9:04am 1.6ft 6s 4
mph
1016.8mb 37f 47f
8:04am 1.6ft 6s 9
mph
1016.4mb 37f 47f
7:04am 1.6ft 6s 7 9 mph 1016.5mb 37f 45f
6:04am 1.6ft 5s  -  mph 1016.2mb 37f 41f
5:04am 1.6ft 6s  -  2 mph 1016mb 37f 39f
4:04am 1.6ft 5s 4 7 mph 1016.2mb 37f 39f
3:04am 1.6ft 5s 2 4 mph 1016.6mb 37f 41f
2:04am 1.3ft 5s 7
mph
1017mb 37f 41f
1:04am 1.6ft 5s 4
mph
1017.2mb 37f 41f
12:04am 1.3ft 5s 7
mph
1017.4mb 37f 41f
Tue 04/14 11:04pm 1.6ft 6s 7
mph
1017.3mb 37f 41f
10:04pm 2ft 6s 9
mph
1017.5mb 37f 41f
9:04pm 2ft 6s 2 9 mph 1017mb 37f 42f
8:04pm 2.5ft 6s 7
mph
1016.1mb 37f 42f
7:04pm 2.5ft 6s 4 7 mph 1015.7mb 37f 48f
6:04pm 2.5ft 6s 11 13 mph 1015.3mb 37f 53f
5:04pm 2.5ft 6s 16 20 mph 1015.4mb 37f 55f
4:04pm 3ft 6s 18 25 mph 1015.4mb 37f 55f
3:04pm 2.5ft 5s 11 16 mph 1015.4mb 38f 50f
2:04pm 2.5ft 6s 7 13 mph 1015.9mb 38f 46f